Time;durP1;ratioP1;P1;durP2;ratioP2;P2;SDS_P1;SDS_P2;PMS_P1;PMS_P2;Temp;Humidity;BMP_temperature;BMP_pressure;BME280_temperature;BME280_humidity;BME280_pressure;Samples;Min_cycle;Max_cycle;Signal;HPM_P1;HPM_P2
2020/12/24 00:01:07;;;;;;;26.55;13.00;;;;;;;5.75;71.53;94260.56;5010205;28;20040;-74
2020/12/24 00:03:33;;;;;;;28.35;12.65;;;;;;;5.72;71.72;94260.28;5009880;28;20030;-74
2020/12/24 00:05:58;;;;;;;31.73;12.98;;;;;;;5.68;71.98;94267.19;5010326;28;20068;-74
2020/12/24 00:08:24;;;;;;;30.55;13.45;;;;;;;5.65;72.22;94265.88;5008827;28;20034;-74
2020/12/24 00:10:50;;;;;;;27.20;12.93;;;;;;;5.61;72.04;94267.50;5008771;28;20021;-75
2020/12/24 00:13:16;;;;;;;28.73;13.32;;;;;;;5.60;71.91;94273.88;5008800;28;20030;-74
2020/12/24 00:15:43;;;;;;;27.00;12.02;;;;;;;5.54;71.88;94265.16;5009791;28;20029;-74
2020/12/24 00:18:09;;;;;;;32.60;13.27;;;;;;;5.53;71.75;94263.56;5013565;28;20088;-74
2020/12/24 00:20:35;;;;;;;32.13;12.98;;;;;;;5.52;71.99;94263.84;5013332;28;20527;-74
2020/12/24 00:23:01;;;;;;;22.48;11.93;;;;;;;5.49;72.01;94256.44;5013799;28;20037;-74
2020/12/24 00:25:26;;;;;;;29.20;13.52;;;;;;;5.43;71.96;94264.41;5013591;28;20073;-74
2020/12/24 00:27:51;;;;;;;26.45;12.48;;;;;;;5.39;71.16;94258.09;5011931;28;20582;-74
2020/12/24 00:30:17;;;;;;;30.98;14.15;;;;;;;5.27;71.80;94262.88;5013414;28;20034;-74
2020/12/24 00:32:43;;;;;;;29.55;12.82;;;;;;;5.22;72.20;94262.88;5013047;28;20509;-74
2020/12/24 00:35:08;;;;;;;45.35;17.92;;;;;;;5.20;71.91;94265.00;5012159;28;20113;-74
2020/12/24 00:37:34;;;;;;;49.83;20.55;;;;;;;5.14;72.30;94268.72;5011779;28;20092;-75
2020/12/24 00:39:59;;;;;;;50.08;20.90;;;;;;;5.12;72.66;94262.91;5011941;28;20026;-74
2020/12/24 00:42:25;;;;;;;49.63;19.25;;;;;;;5.09;72.09;94248.41;5011810;28;20038;-74
2020/12/24 00:44:50;;;;;;;36.88;14.52;;;;;;;5.10;71.91;94257.09;5012919;28;20084;-74
2020/12/24 00:47:16;;;;;;;24.13;9.57;;;;;;;5.06;71.87;94243.63;5011865;28;20087;-74
2020/12/24 00:49:42;;;;;;;25.15;10.10;;;;;;;5.03;71.85;94250.25;5012822;28;20032;-75
2020/12/24 00:52:07;;;;;;;18.23;9.13;;;;;;;5.00;72.41;94255.28;5011751;28;20045;-74
2020/12/24 00:54:32;;;;;;;21.17;8.25;;;;;;;5.02;71.98;94247.88;5011679;28;20436;-75
2020/12/24 00:56:58;;;;;;;23.20;8.95;;;;;;;4.99;72.50;94251.06;5011528;28;20034;-74
2020/12/24 00:59:23;;;;;;;18.40;7.95;;;;;;;4.97;72.36;94256.59;5012897;28;20034;-74
2020/12/24 01:01:49;;;;;;;21.83;8.60;;;;;;;4.99;72.58;94254.50;5011381;28;20041;-74
2020/12/24 01:04:14;;;;;;;22.33;9.00;;;;;;;4.96;72.55;94264.78;5012849;28;20478;-73
2020/12/24 01:06:40;;;;;;;23.20;9.57;;;;;;;4.96;72.75;94260.28;5012687;28;20104;-75
2020/12/24 01:09:05;;;;;;;24.98;9.85;;;;;;;4.97;72.97;94264.53;4998282;28;20029;-74
2020/12/24 01:11:31;;;;;;;25.10;9.50;;;;;;;5.01;72.66;94265.59;5012786;28;20030;-74
2020/12/24 01:13:57;;;;;;;27.25;10.02;;;;;;;5.00;72.95;94260.56;5011145;28;20026;-74
2020/12/24 01:16:23;;;;;;;26.20;10.35;;;;;;;4.97;72.90;94259.25;5012337;28;20026;-74
2020/12/24 01:18:48;;;;;;;22.48;10.32;;;;;;;5.00;73.24;94256.06;5010699;28;20450;-74
2020/12/24 01:21:14;;;;;;;25.17;9.95;;;;;;;5.02;73.70;94253.94;5011260;28;20123;-74
2020/12/24 01:23:39;;;;;;;21.98;9.18;;;;;;;5.05;73.45;94246.53;5012244;28;20030;-74
2020/12/24 01:26:08;;;;;;;23.33;10.15;;;;;;;5.01;73.71;94247.09;5010973;28;20432;-74
2020/12/24 01:28:35;;;;;;;21.98;10.73;;;;;;;5.01;73.19;94244.44;5011821;28;20172;-74
2020/12/24 01:31:00;;;;;;;30.27;11.40;;;;;;;4.98;73.21;94237.03;5012418;28;20386;-74
2020/12/24 01:33:29;;;;;;;26.45;11.45;;;;;;;5.00;72.44;94240.22;5010604;28;20037;-74
2020/12/24 01:35:55;;;;;;;35.67;13.20;;;;;;;5.02;72.20;94222.25;5012080;28;20485;-74
2020/12/24 01:38:21;;;;;;;31.00;12.95;;;;;;;4.99;72.03;94228.06;5010677;28;20040;-74
2020/12/24 01:40:47;;;;;;;20.40;8.68;;;;;;;4.98;72.03;94229.13;5010809;28;20064;-74
2020/12/24 01:43:13;;;;;;;17.13;7.47;;;;;;;4.96;72.19;94220.66;5010446;28;20060;-74
2020/12/24 01:45:38;;;;;;;14.38;7.35;;;;;;;4.95;71.69;94213.03;5012066;28;20030;-74
2020/12/24 01:48:04;;;;;;;15.30;7.15;;;;;;;4.85;71.96;94218.34;5012169;28;20372;-73
2020/12/24 01:50:30;;;;;;;14.13;7.05;;;;;;;4.82;72.28;94214.38;5011840;28;20065;-74
2020/12/24 01:52:59;;;;;;;15.68;7.53;;;;;;;4.80;72.10;94219.13;5011806;28;20021;-74
2020/12/24 01:55:25;;;;;;;22.13;8.82;;;;;;;4.77;72.03;94217.03;5011690;28;20092;-74
2020/12/24 01:57:55;;;;;;;18.27;9.35;;;;;;;4.77;72.06;94219.69;5010394;28;20481;-75
2020/12/24 02:00:21;;;;;;;17.90;8.50;;;;;;;4.73;71.63;94219.41;5011588;28;20041;-74
2020/12/24 02:02:46;;;;;;;21.48;10.80;;;;;;;4.68;72.61;94215.97;5011556;28;20477;-74
2020/12/24 02:05:12;;;;;;;19.80;9.80;;;;;;;4.63;73.74;94220.22;5010342;28;20037;-74
2020/12/24 02:07:37;;;;;;;25.95;9.07;;;;;;;4.59;74.49;94216.53;5011488;28;20543;-75
2020/12/24 02:10:03;;;;;;;22.15;10.05;;;;;;;4.52;74.90;94207.28;5010282;28;20034;-74
2020/12/24 02:12:28;;;;;;;17.73;8.75;;;;;;;4.52;75.14;94208.09;5010066;28;20408;-74
2020/12/24 02:14:54;;;;;;;20.00;9.63;;;;;;;4.53;74.93;94216.81;5011348;28;20026;-74
2020/12/24 02:17:20;;;;;;;20.52;10.40;;;;;;;4.54;74.45;94205.19;5010018;28;20591;-74
2020/12/24 02:19:45;;;;;;;25.52;9.57;;;;;;;4.55;74.19;94212.06;5010328;28;20033;-74
2020/12/24 02:22:11;;;;;;;29.55;10.82;;;;;;;4.57;73.72;94205.44;5011314;28;20386;-74
2020/12/24 02:24:43;;;;;;;21.38;9.80;;;;;;;4.50;73.92;94204.94;5011406;28;20030;-74
2020/12/24 02:27:10;;;;;;;25.77;11.52;;;;;;;4.47;73.96;94205.44;5009963;28;20065;-74
2020/12/24 02:29:35;;;;;;;18.38;9.98;;;;;;;4.49;74.03;94208.63;5011115;28;20041;-74
2020/12/24 02:32:01;;;;;;;22.40;10.02;;;;;;;4.54;74.17;94206.00;5009983;28;20042;-74
2020/12/24 02:34:26;;;;;;;23.38;9.13;;;;;;;4.58;74.05;94212.31;5009637;28;20464;-74
2020/12/24 02:36:52;;;;;;;16.92;8.38;;;;;;;4.61;73.93;94206.50;5009972;28;20030;-74
2020/12/24 02:39:17;;;;;;;18.00;9.15;;;;;;;4.62;73.82;94202.81;5009419;28;20041;-75
2020/12/24 02:41:43;;;;;;;18.00;8.27;;;;;;;4.63;73.90;94199.09;5009257;28;20036;-74
2020/12/24 02:44:09;;;;;;;17.10;7.57;;;;;;;4.66;73.45;94196.97;5010870;28;20564;-74
2020/12/24 02:46:34;;;;;;;13.15;6.45;;;;;;;4.69;72.99;94193.81;5010816;28;20068;-74
2020/12/24 02:49:00;;;;;;;14.93;7.30;;;;;;;4.65;72.98;94195.41;5009539;28;20489;-75
2020/12/24 02:51:25;;;;;;;12.40;7.28;;;;;;;4.66;72.55;94192.50;5009665;28;20041;-75
2020/12/24 02:53:51;;;;;;;16.17;8.32;;;;;;;4.62;72.63;94194.88;5009553;28;20026;-74
2020/12/24 02:56:17;;;;;;;16.65;8.75;;;;;;;4.60;72.62;94198.84;5009380;28;20033;-74
2020/12/24 02:58:42;;;;;;;15.35;7.97;;;;;;;4.56;72.77;94193.31;5009424;28;20445;-74
2020/12/24 03:01:08;;;;;;;16.23;8.05;;;;;;;4.59;72.99;94187.47;5009545;28;20030;-74
2020/12/24 03:03:33;;;;;;;15.55;7.75;;;;;;;4.58;72.59;94188.56;5009274;28;20025;-74
2020/12/24 03:05:59;;;;;;;13.50;7.35;;;;;;;4.60;72.09;94177.75;5009366;28;20034;-74
2020/12/24 03:08:27;;;;;;;15.65;7.85;;;;;;;4.57;72.11;94175.63;5010991;28;20036;-74
2020/12/24 03:10:52;;;;;;;15.73;8.52;;;;;;;4.52;73.32;94168.50;5009330;28;20026;-74
2020/12/24 03:13:18;;;;;;;21.13;8.98;;;;;;;4.58;73.74;94174.53;5010517;28;20627;-74
2020/12/24 03:15:43;;;;;;;16.70;8.35;;;;;;;4.56;73.50;94174.84;5009256;28;20034;-74
2020/12/24 03:18:09;;;;;;;23.23;9.82;;;;;;;4.54;73.52;94166.38;5009386;28;20454;-74
2020/12/24 03:20:34;;;;;;;20.05;8.70;;;;;;;4.50;73.54;94180.38;5009132;28;20037;-75
2020/12/24 03:23:00;;;;;;;17.08;9.10;;;;;;;4.50;73.42;94177.72;5009411;28;20080;-74
2020/12/24 03:25:25;;;;;;;22.10;9.35;;;;;;;4.49;73.43;94179.59;5009076;28;20408;-75
2020/12/24 03:27:51;;;;;;;23.40;9.70;;;;;;;4.49;73.87;94182.22;5010334;28;20405;-74
2020/12/24 03:30:16;;;;;;;23.73;9.50;;;;;;;4.51;73.80;94182.75;5010469;28;20501;-74
2020/12/24 03:32:43;;;;;;;21.15;10.15;;;;;;;4.55;74.16;94183.78;5009122;28;20025;-75
2020/12/24 03:35:09;;;;;;;21.77;10.00;;;;;;;4.53;73.98;94185.91;5009101;28;20034;-74
2020/12/24 03:37:34;;;;;;;23.33;10.13;;;;;;;4.49;74.87;94192.78;5009423;28;20405;-75
2020/12/24 03:39:59;;;;;;;28.88;10.93;;;;;;;4.48;75.25;94185.94;5010307;28;20057;-74
2020/12/24 03:42:28;;;;;;;20.00;9.80;;;;;;;4.49;75.26;94176.16;5008898;28;20050;-74
2020/12/24 03:44:53;;;;;;;23.00;9.73;;;;;;;4.53;75.10;94187.78;5008943;28;20469;-74
2020/12/24 03:47:19;;;;;;;20.48;9.65;;;;;;;4.55;74.70;94185.66;5008951;28;20091;-74
2020/12/24 03:49:44;;;;;;;21.17;9.02;;;;;;;4.52;74.67;94180.88;5009041;28;20117;-74
2020/12/24 03:52:10;;;;;;;17.70;9.02;;;;;;;4.53;74.22;94178.00;5012668;28;20434;-74
2020/12/24 03:54:35;;;;;;;17.92;8.95;;;;;;;4.54;73.33;94182.22;5013967;28;20026;-74
2020/12/24 03:57:01;;;;;;;20.33;9.02;;;;;;;4.53;73.66;94185.91;5012594;28;20045;-74
2020/12/24 03:59:27;;;;;;;22.38;9.25;;;;;;;4.55;73.99;94186.44;5012704;28;20022;-74
2020/12/24 04:01:52;;;;;;;18.40;9.63;;;;;;;4.53;74.18;94183.28;5014296;28;20029;-75
2020/12/24 04:04:18;;;;;;;22.98;9.50;;;;;;;4.57;74.48;94189.59;5013182;28;20576;-75
2020/12/24 04:06:43;;;;;;;23.92;10.55;;;;;;;4.62;75.44;94194.88;5013510;28;20033;-75
2020/12/24 04:09:09;;;;;;;20.15;10.30;;;;;;;4.59;74.58;94189.34;5014247;28;20084;-75
2020/12/24 04:11:34;;;;;;;22.45;10.02;;;;;;;4.57;74.35;94196.72;5013099;28;20069;-75
2020/12/24 04:14:00;;;;;;;24.45;10.82;;;;;;;4.58;74.29;94178.00;5014143;28;20034;-75
2020/12/24 04:16:25;;;;;;;31.88;13.55;;;;;;;4.60;73.50;94191.72;5014283;28;20033;-75
2020/12/24 04:18:51;;;;;;;27.48;12.85;;;;;;;4.56;73.24;94195.94;5012834;28;20124;-75
2020/12/24 04:21:17;;;;;;;30.10;12.52;;;;;;;4.59;73.44;94195.41;5013071;28;20026;-75
2020/12/24 04:23:42;;;;;;;30.92;12.65;;;;;;;4.61;73.93;94188.00;5012711;28;20030;-75
2020/12/24 04:26:08;;;;;;;29.23;12.75;;;;;;;4.61;73.35;94184.59;5013994;28;20172;-76
2020/12/24 04:28:35;;;;;;;27.48;12.93;;;;;;;4.61;72.63;94182.72;5012520;28;20021;-79
2020/12/24 04:31:01;;;;;;;27.88;10.57;;;;;;;4.58;73.18;94179.81;5012116;28;20405;-79
2020/12/24 04:33:27;;;;;;;23.58;11.20;;;;;;;4.59;73.45;94182.22;5012187;28;20033;-79
2020/12/24 04:35:53;;;;;;;30.38;11.32;;;;;;;4.62;73.73;94186.97;5012046;28;20026;-79
2020/12/24 04:38:19;;;;;;;29.70;12.75;;;;;;;4.66;73.15;94183.78;5012258;28;20092;-80
2020/12/24 04:40:48;;;;;;;31.70;12.75;;;;;;;4.67;73.04;94180.88;5012240;28;20038;-79
2020/12/24 04:43:15;;;;;;;26.48;12.27;;;;;;;4.66;73.15;94179.31;5013408;28;20038;-79
2020/12/24 04:45:40;;;;;;;33.22;14.93;;;;;;;4.67;73.12;94182.72;5011977;28;20033;-79
2020/12/24 04:48:07;;;;;;;30.58;14.13;;;;;;;4.61;73.26;94185.38;5011842;28;20117;-79
2020/12/24 04:50:37;;;;;;;31.48;13.45;;;;;;;4.59;73.40;94176.13;5011932;28;20028;-79
2020/12/24 04:53:03;;;;;;;32.10;12.52;;;;;;;4.53;74.15;94185.91;5011574;28;20038;-79
2020/12/24 04:55:29;;;;;;;32.95;14.68;;;;;;;4.57;74.02;94184.31;5011701;28;20030;-79
2020/12/24 04:57:55;;;;;;;43.75;15.65;;;;;;;4.63;73.62;94177.97;5011652;28;20018;-79
2020/12/24 05:00:22;;;;;;;38.85;16.10;;;;;;;4.62;73.79;94173.75;5011662;28;20045;-80
2020/12/24 05:03:08;;;;;;;49.10;19.08;;;;;;;4.63;73.47;94169.25;5010726;28;20037;-80
2020/12/24 05:05:34;;;;;;;37.20;17.10;;;;;;;4.65;73.29;94177.72;5011458;28;20496;-79
2020/12/24 05:08:02;;;;;;;38.42;16.80;;;;;;;4.66;73.52;94175.84;5011426;28;20041;-79
2020/12/24 05:10:28;;;;;;;37.13;16.17;;;;;;;4.65;73.45;94175.06;5011402;28;20034;-79
2020/12/24 05:12:53;;;;;;;48.55;18.23;;;;;;;4.62;73.26;94178.25;5011403;28;20046;-80
2020/12/24 05:15:30;;;;;;;36.85;16.23;;;;;;;4.63;73.30;94172.69;5011494;28;20401;-79
2020/12/24 05:18:18;;;;;;;39.63;17.75;;;;;;;4.61;73.27;94174.03;5011545;28;20030;-79
2020/12/24 05:20:44;;;;;;;53.80;19.10;;;;;;;4.57;73.30;94171.13;5010273;28;20022;-79
2020/12/24 05:23:11;;;;;;;42.88;17.48;;;;;;;4.56;73.39;94174.84;5011186;28;20029;-79
2020/12/24 05:25:36;;;;;;;35.53;13.73;;;;;;;4.57;73.43;94167.69;5011532;28;20029;-79
2020/12/24 05:28:01;;;;;;;29.00;13.10;;;;;;;4.61;73.90;94180.09;5011129;28;20022;-79
2020/12/24 05:30:27;;;;;;;30.33;12.07;;;;;;;4.62;74.28;94175.63;5011090;28;20113;-79
2020/12/24 05:32:53;;;;;;;25.25;11.05;;;;;;;4.63;74.23;94175.34;5011267;28;20112;-80
2020/12/24 05:35:23;;;;;;;19.92;9.85;;;;;;;4.66;74.51;94162.66;5011267;28;20581;-79
2020/12/24 05:37:50;;;;;;;21.17;10.65;;;;;;;4.69;74.73;94165.56;5012436;28;20025;-79
2020/12/24 05:40:30;;;;;;;28.25;11.68;;;;;;;4.70;74.51;94161.06;5010955;28;20124;-79
2020/12/24 05:42:58;;;;;;;25.10;10.82;;;;;;;4.68;74.24;94164.00;5010769;28;20156;-80
2020/12/24 05:45:30;;;;;;;34.40;11.73;;;;;;;4.67;73.92;94158.97;5010788;28;20034;-79
2020/12/24 05:48:10;;;;;;;36.97;13.15;;;;;;;4.65;73.71;94153.94;5012008;28;20048;-79
2020/12/24 05:50:36;;;;;;;30.98;13.15;;;;;;;4.64;73.58;94157.66;5010833;28;20026;-79
2020/12/24 05:53:03;;;;;;;40.95;16.08;;;;;;;4.66;73.52;94173.22;5012219;28;20034;-79
2020/12/24 05:55:29;;;;;;;44.58;17.13;;;;;;;4.65;73.56;94158.44;5010656;28;20416;-79
2020/12/24 05:57:57;;;;;;;36.53;13.07;;;;;;;4.65;73.53;94161.09;5011999;28;20021;-79
2020/12/24 06:00:30;;;;;;;32.13;12.52;;;;;;;4.65;73.54;94158.44;5010597;28;20156;-79
2020/12/24 06:03:08;;;;;;;28.33;11.95;;;;;;;4.62;73.90;94157.91;5010784;28;20084;-79
2020/12/24 06:05:57;;;;;;;28.67;13.70;;;;;;;4.61;73.64;94151.03;5010544;28;20160;-79
2020/12/24 06:08:25;;;;;;;34.22;13.10;;;;;;;4.60;73.61;94152.13;5011819;28;20109;-79
2020/12/24 06:11:08;;;;;;;37.05;14.32;;;;;;;4.58;73.85;94146.31;5010597;28;20025;-79
2020/12/24 06:13:40;;;;;;;36.42;15.18;;;;;;;4.58;73.19;94159.53;5010281;28;20026;-79
2020/12/24 06:16:11;;;;;;;30.92;12.82;;;;;;;4.57;73.59;94150.00;5010420;28;20033;-79
2020/12/24 06:18:41;;;;;;;31.00;13.68;;;;;;;4.54;74.20;94153.19;5010252;28;20036;-79
2020/12/24 06:21:14;;;;;;;24.50;10.25;;;;;;;4.52;74.11;94157.13;5011590;28;20501;-79
2020/12/24 06:23:45;;;;;;;39.90;15.75;;;;;;;4.46;74.58;94158.19;5010229;28;20109;-79
2020/12/24 06:26:18;;;;;;;30.33;12.97;;;;;;;4.42;75.37;94163.25;5010198;28;20056;-79
2020/12/24 06:28:44;;;;;;;32.60;13.35;;;;;;;4.43;76.06;94165.59;5003489;28;20030;-79
2020/12/24 06:31:12;;;;;;;28.10;12.48;;;;;;;4.42;76.44;94157.97;5010016;28;20417;-79
2020/12/24 06:33:37;;;;;;;22.20;11.45;;;;;;;4.47;76.62;94162.44;5009891;28;20038;-79
2020/12/24 06:36:03;;;;;;;25.75;12.57;;;;;;;4.49;76.71;94166.38;5010044;28;20038;-79
2020/12/24 06:38:46;;;;;;;27.45;12.70;;;;;;;4.53;76.26;94167.44;5009858;28;20057;-80
2020/12/24 06:41:41;;;;;;;28.45;12.88;;;;;;;4.64;75.84;94168.22;5009949;28;20069;-80
2020/12/24 06:44:11;;;;;;;28.88;11.75;;;;;;;4.69;76.00;94160.28;5001241;28;20139;-79
2020/12/24 06:46:58;;;;;;;30.98;12.70;;;;;;;4.78;75.57;94163.16;5011056;28;20026;-79
2020/12/24 06:49:29;;;;;;;22.02;12.15;;;;;;;4.85;75.97;94162.88;5009844;28;20052;-79
2020/12/24 06:51:55;;;;;;;22.10;11.38;;;;;;;4.95;75.61;94158.34;5009831;28;20029;-79
2020/12/24 06:54:22;;;;;;;25.48;12.93;;;;;;;5.07;75.56;94157.22;5009685;28;20022;-79
2020/12/24 06:56:47;;;;;;;23.05;12.98;;;;;;;5.19;75.51;94157.69;5009927;28;20047;-79
2020/12/24 06:59:21;;;;;;;23.98;11.07;;;;;;;5.30;74.91;94156.59;5011054;28;20037;-80
2020/12/24 07:02:01;;;;;;;24.88;11.70;;;;;;;5.45;74.66;94168.16;5009677;28;20541;-79
2020/12/24 07:04:40;;;;;;;32.15;13.07;;;;;;;5.60;74.15;94162.81;5010741;28;20448;-79
2020/12/24 07:07:07;;;;;;;24.33;10.80;;;;;;;5.74;73.67;94163.75;5009357;28;20121;-79
2020/12/24 07:09:32;;;;;;;24.77;10.18;;;;;;;5.83;72.83;94170.03;5009339;28;20088;-79
2020/12/24 07:11:59;;;;;;;31.67;12.27;;;;;;;5.91;72.24;94166.03;5009780;28;20034;-79
2020/12/24 07:14:35;;;;;;;31.67;13.80;;;;;;;5.96;72.30;94170.50;5009271;28;20034;-78
2020/12/24 07:17:08;;;;;;;20.70;10.93;;;;;;;6.03;72.25;94166.50;5009307;28;20060;-79
2020/12/24 07:19:48;;;;;;;22.95;11.68;;;;;;;6.06;72.28;94170.44;5009238;28;20501;-79
2020/12/24 07:22:15;;;;;;;22.63;11.27;;;;;;;6.12;72.36;94163.25;5010655;28;20036;-79
2020/12/24 07:24:47;;;;;;;22.50;12.30;;;;;;;6.17;72.16;94164.00;5009698;28;20123;-79
2020/12/24 07:27:13;;;;;;;28.00;14.02;;;;;;;6.16;72.14;94157.13;5011859;28;20468;-79
2020/12/24 07:29:39;;;;;;;35.00;15.38;;;;;;;6.18;72.12;94165.56;5014569;28;20188;-79
2020/12/24 07:32:06;;;;;;;30.33;14.88;;;;;;;6.21;72.14;94151.78;5013062;28;20030;-79
2020/12/24 07:34:35;;;;;;;33.15;16.95;;;;;;;6.21;72.29;94149.16;5013258;28;20053;-79
2020/12/24 07:37:02;;;;;;;46.13;20.75;;;;;;;6.23;71.75;94149.66;5013428;28;20030;-79
2020/12/24 07:39:27;;;;;;;42.45;18.50;;;;;;;6.27;71.26;94149.09;5013622;28;20091;-79
2020/12/24 07:41:53;;;;;;;53.38;23.35;;;;;;;6.26;71.20;94155.47;5013309;28;20025;-79
2020/12/24 07:44:19;;;;;;;47.88;22.30;;;;;;;6.17;71.22;94156.06;5013037;28;20132;-79
2020/12/24 07:46:47;;;;;;;54.47;22.60;;;;;;;6.12;70.87;94153.44;5014925;28;20049;-79
2020/12/24 07:49:13;;;;;;;48.70;22.30;;;;;;;6.05;71.08;94139.75;5013206;28;20026;-78
2020/12/24 07:51:39;;;;;;;48.90;22.20;;;;;;;6.04;71.31;94146.09;5013192;28;20030;-79
2020/12/24 07:54:08;;;;;;;47.85;22.33;;;;;;;6.09;71.66;94142.66;5012860;28;20080;-79
2020/12/24 07:56:35;;;;;;;51.67;23.23;;;;;;;6.11;71.50;94143.94;5013063;28;20034;-78
2020/12/24 07:59:03;;;;;;;45.22;22.23;;;;;;;6.18;71.39;94147.03;5013193;28;20037;-79
2020/12/24 08:01:28;;;;;;;40.28;20.58;;;;;;;6.26;71.33;94142.22;5012795;28;20478;-78
2020/12/24 08:04:01;;;;;;;36.45;19.13;;;;;;;6.31;71.20;94150.91;5014178;28;20030;-79
2020/12/24 08:06:27;;;;;;;42.72;19.00;;;;;;;6.39;70.76;94157.44;5012914;28;20099;-80
2020/12/24 08:09:06;;;;;;;42.15;19.60;;;;;;;6.48;70.57;94155.78;5012813;28;20468;-78
2020/12/24 08:11:31;;;;;;;43.83;19.50;;;;;;;6.55;70.55;94156.22;5012972;28;20026;-79
2020/12/24 08:13:57;;;;;;;40.35;20.42;;;;;;;6.65;70.29;94159.88;5012721;28;20100;-78
2020/12/24 08:16:25;;;;;;;49.95;20.95;;;;;;;6.75;69.77;94157.09;5013096;28;20034;-79
2020/12/24 08:18:59;;;;;;;36.58;17.25;;;;;;;6.86;68.74;94149.84;5013217;28;20026;-79
2020/12/24 08:21:31;;;;;;;40.50;16.35;;;;;;;6.87;68.25;94162.81;5013781;28;20029;-79
2020/12/24 08:24:04;;;;;;;34.15;17.80;;;;;;;6.95;68.31;94153.44;5012098;28;20074;-79
2020/12/24 08:26:32;;;;;;;46.22;18.80;;;;;;;6.96;68.37;94155.81;5012744;28;20167;-79
2020/12/24 08:29:02;;;;;;;36.95;17.23;;;;;;;6.99;68.55;94157.91;5012435;28;20021;-79
2020/12/24 08:31:29;;;;;;;37.03;18.95;;;;;;;7.01;68.73;94158.41;5013863;28;20021;-79
2020/12/24 08:33:55;;;;;;;37.65;19.75;;;;;;;7.00;69.41;94156.03;5012308;28;20029;-79
2020/12/24 08:36:28;;;;;;;39.80;21.20;;;;;;;7.05;69.53;94153.34;5012486;28;20025;-79
2020/12/24 08:39:08;;;;;;;44.08;21.20;;;;;;;7.05;69.59;94155.19;5011166;28;20387;-78
2020/12/24 08:41:38;;;;;;;46.15;21.83;;;;;;;7.09;69.57;94153.56;5012108;28;20026;-79
2020/12/24 08:44:04;;;;;;;46.38;22.63;;;;;;;7.13;69.47;94158.00;5011854;28;20038;-79
2020/12/24 08:46:31;;;;;;;46.88;22.42;;;;;;;7.21;69.53;94159.25;5013282;28;20029;-79
2020/12/24 08:49:16;;;;;;;47.40;22.17;;;;;;;7.28;68.85;94157.03;5013280;28;20021;-79
2020/12/24 08:51:41;;;;;;;50.70;23.20;;;;;;;7.37;68.34;94159.84;5011989;28;20030;-79
2020/12/24 08:54:07;;;;;;;52.38;25.10;;;;;;;7.44;68.48;94145.13;5011821;28;20382;-79
2020/12/24 08:56:34;;;;;;;48.53;24.35;;;;;;;7.53;68.11;94147.97;5013331;28;20058;-79
2020/12/24 08:59:00;;;;;;;56.78;23.90;;;;;;;7.61;68.31;94133.25;5011451;28;20033;-79
2020/12/24 09:01:25;;;;;;;42.35;22.35;;;;;;;7.68;68.29;94130.25;5011697;28;20038;-79
2020/12/24 09:03:51;;;;;;;49.72;21.90;;;;;;;7.80;68.33;94126.06;5011465;28;20037;-79
2020/12/24 09:06:17;;;;;;;44.42;20.52;;;;;;;7.92;68.32;94128.28;5012864;28;20064;-79
2020/12/24 09:08:49;;;;;;;42.55;21.15;;;;;;;8.05;67.93;94116.13;5011440;28;20072;-80
2020/12/24 09:11:25;;;;;;;43.08;19.65;;;;;;;8.16;67.70;94116.75;5012765;28;20053;-80
2020/12/24 09:14:03;;;;;;;37.35;19.73;;;;;;;8.26;67.47;94115.78;5012680;28;20107;-80
2020/12/24 09:16:31;;;;;;;41.20;20.30;;;;;;;8.30;67.02;94111.47;5011326;28;20026;-80
2020/12/24 09:19:04;;;;;;;43.95;20.23;;;;;;;8.36;64.82;94110.31;5012734;28;20018;-80
2020/12/24 09:21:31;;;;;;;44.47;20.25;;;;;;;8.31;64.97;94097.91;5011386;28;20103;-80
2020/12/24 09:24:12;;;;;;;38.42;20.23;;;;;;;8.36;65.37;94091.72;5011285;28;20432;-79
2020/12/24 09:26:49;;;;;;;43.03;20.73;;;;;;;8.42;64.43;94079.94;5011629;28;20101;-80
2020/12/24 09:29:15;;;;;;;37.40;20.25;;;;;;;8.46;64.34;94078.28;5012599;28;20112;-80
2020/12/24 09:31:41;;;;;;;44.47;22.20;;;;;;;8.42;64.96;94083.38;5011894;28;20444;-80
2020/12/24 09:34:07;;;;;;;45.53;23.02;;;;;;;8.38;64.83;94086.91;5013109;28;20413;-79
2020/12/24 09:36:33;;;;;;;41.85;22.13;;;;;;;8.43;64.52;94078.88;5011612;28;20508;-80
2020/12/24 09:38:58;;;;;;;47.05;22.25;;;;;;;8.51;64.55;94069.41;5011471;28;20123;-80
2020/12/24 09:41:24;;;;;;;50.95;23.63;;;;;;;8.56;63.92;94072.00;5011520;28;20505;-80
2020/12/24 09:43:50;;;;;;;46.53;22.63;;;;;;;8.58;64.01;94072.50;5012180;28;20042;-80
2020/12/24 09:46:17;;;;;;;57.78;24.27;;;;;;;8.66;64.20;94068.38;5012002;28;20037;-80
2020/12/24 09:48:43;;;;;;;64.57;25.20;;;;;;;8.74;64.36;94065.81;5011267;28;20018;-80
2020/12/24 09:51:08;;;;;;;61.25;26.23;;;;;;;8.83;63.82;94061.38;5012602;28;20408;-79
2020/12/24 09:53:34;;;;;;;50.33;27.08;;;;;;;8.93;63.52;94052.38;5012076;28;20141;-79
2020/12/24 09:56:00;;;;;;;62.40;29.05;;;;;;;9.07;63.62;94047.06;5011769;28;20038;-79
2020/12/24 09:58:26;;;;;;;51.88;29.05;;;;;;;9.11;61.93;94045.38;5012191;28;20041;-79
2020/12/24 10:00:51;;;;;;;58.90;29.60;;;;;;;9.02;62.55;94036.53;5012378;28;20092;-80
2020/12/24 10:03:17;;;;;;;67.00;31.65;;;;;;;8.97;63.07;94042.72;5011153;28;20034;-80
2020/12/24 10:05:42;;;;;;;56.28;28.27;;;;;;;9.07;62.96;94039.06;5011138;28;20034;-80
2020/12/24 10:08:08;;;;;;;58.55;29.45;;;;;;;9.13;62.33;94032.56;5010695;28;20034;-80
2020/12/24 10:10:33;;;;;;;56.72;28.05;;;;;;;9.20;61.53;94029.53;5010936;28;20021;-80
2020/12/24 10:12:59;;;;;;;59.78;29.40;;;;;;;9.20;61.86;94032.19;5010841;28;20029;-80
2020/12/24 10:15:24;;;;;;;57.50;29.02;;;;;;;9.30;61.68;94026.63;5010544;28;20494;-80
2020/12/24 10:17:50;;;;;;;61.33;29.67;;;;;;;9.43;61.82;94025.78;5010740;28;20569;-80
2020/12/24 10:20:15;;;;;;;56.30;28.92;;;;;;;9.55;61.97;94019.16;5010774;28;20037;-80
2020/12/24 10:22:41;;;;;;;55.92;26.88;;;;;;;9.71;60.09;94017.69;5010782;28;20421;-80
2020/12/24 10:25:06;;;;;;;58.60;28.33;;;;;;;9.75;60.04;94005.34;5011235;28;20026;-80
2020/12/24 10:27:32;;;;;;;55.25;27.92;;;;;;;9.86;59.63;94005.09;5011348;28;20033;-80
2020/12/24 10:29:58;;;;;;;53.35;27.23;;;;;;;9.97;58.33;94014.38;5011427;28;20496;-80
2020/12/24 10:32:24;;;;;;;48.85;26.00;;;;;;;9.99;58.07;93998.91;5010793;28;20051;-80
2020/12/24 10:34:50;;;;;;;57.90;26.88;;;;;;;9.99;58.45;93996.22;5010721;28;20128;-80
2020/12/24 10:37:15;;;;;;;54.42;27.38;;;;;;;10.07;58.00;93992.81;5010276;28;20048;-80
2020/12/24 10:39:41;;;;;;;54.10;27.38;;;;;;;10.10;57.35;93994.13;5010726;28;20045;-80
2020/12/24 10:42:06;;;;;;;53.28;26.40;;;;;;;10.15;57.27;93989.41;5010579;28;20022;-79
2020/12/24 10:44:32;;;;;;;53.67;28.38;;;;;;;10.20;56.97;93986.63;5010934;28;20383;-79
2020/12/24 10:46:58;;;;;;;51.17;26.17;;;;;;;10.21;56.52;93985.53;5012429;28;20490;-79
2020/12/24 10:49:25;;;;;;;55.63;28.88;;;;;;;10.21;56.60;93990.06;5010498;28;20113;-79
2020/12/24 10:51:51;;;;;;;60.08;29.30;;;;;;;10.19;56.71;93981.59;5011804;28;20034;-80
2020/12/24 10:54:17;;;;;;;53.13;28.15;;;;;;;10.25;56.93;93970.50;5010516;28;20033;-79
2020/12/24 10:57:00;;;;;;;55.95;26.08;;;;;;;10.33;56.73;93965.56;5012170;28;20033;-79
2020/12/24 10:59:26;;;;;;;59.13;28.50;;;;;;;10.39;56.31;93972.31;5010023;28;20028;-80
2020/12/24 11:01:51;;;;;;;46.85;26.75;;;;;;;10.44;56.69;93964.16;5009768;28;20026;-79
2020/12/24 11:04:17;;;;;;;56.70;24.92;;;;;;;10.53;56.59;93957.00;5010261;28;20116;-80
2020/12/24 11:06:44;;;;;;;54.88;26.10;;;;;;;10.57;56.35;93952.63;5010554;28;20389;-80
2020/12/24 11:09:10;;;;;;;46.28;25.92;;;;;;;10.62;57.03;93957.00;5010239;28;20034;-80
2020/12/24 11:11:36;;;;;;;52.38;26.48;;;;;;;10.70;55.98;93958.13;5010037;28;20030;-79
2020/12/24 11:14:02;;;;;;;48.95;25.00;;;;;;;10.78;55.75;93947.47;5011232;28;20033;-80
2020/12/24 11:16:28;;;;;;;56.60;24.55;;;;;;;10.90;55.74;93946.09;5010120;28;20028;-79
2020/12/24 11:18:53;;;;;;;53.97;24.58;;;;;;;10.99;56.12;93952.19;5011831;28;20026;-80
2020/12/24 11:21:19;;;;;;;50.70;24.15;;;;;;;11.11;56.08;93938.25;5010059;28;20056;-80
2020/12/24 11:23:45;;;;;;;55.05;24.85;;;;;;;11.19;55.96;93943.59;5010228;28;20018;-79
2020/12/24 11:26:11;;;;;;;55.75;25.98;;;;;;;11.24;54.91;93945.31;5010752;28;20034;-79
2020/12/24 11:28:36;;;;;;;54.85;27.23;;;;;;;11.28;54.77;93935.59;5010510;28;20068;-79